Time;durP1;ratioP1;P1;durP2;ratioP2;P2;SDS_P1;SDS_P2;PMS_P1;PMS_P2;Temp;Humidity;BMP_temperature;BMP_pressure;BME280_temperature;BME280_humidity;BME280_pressure;Samples;Min_cycle;Max_cycle;Signal;HPM_P1;HPM_P2
2022/03/01 00:02:19;;;;;;;17.33;8.60;;;0.60;99.90;;;;;;4937380;29;20189;-87
2022/03/01 00:04:45;;;;;;;15.57;8.90;;;0.60;99.90;;;;;;4921227;29;20185;-87
2022/03/01 00:07:10;;;;;;;18.77;9.23;;;0.60;99.90;;;;;;4921191;29;20258;-86
2022/03/01 00:09:37;;;;;;;15.37;8.30;;;0.60;99.90;;;;;;4938260;29;20639;-87
2022/03/01 00:12:03;;;;;;;15.90;8.57;;;0.60;99.90;;;;;;4921494;29;20189;-86
2022/03/01 00:14:29;;;;;;;17.57;9.57;;;0.50;99.90;;;;;;4921372;29;20174;-86
2022/03/01 00:16:55;;;;;;;16.50;9.10;;;0.50;99.90;;;;;;5346739;23;20709;-86
2022/03/01 00:19:22;;;;;;;15.53;8.60;;;0.40;99.90;;;;;;4938509;29;20573;-88
2022/03/01 00:21:48;;;;;;;15.93;8.67;;;0.50;99.90;;;;;;4955657;29;20165;-87
2022/03/01 00:24:14;;;;;;;16.43;8.60;;;0.40;99.90;;;;;;4956564;28;20533;-86
2022/03/01 00:26:39;;;;;;;17.93;8.53;;;0.40;99.90;;;;;;4957343;28;20164;-86
2022/03/01 00:29:06;;;;;;;16.07;8.60;;;0.40;99.90;;;;;;4957589;28;20208;-84
2022/03/01 00:31:33;;;;;;;12.57;8.00;;;0.40;99.90;;;;;;4957427;28;20512;-85
2022/03/01 00:33:59;;;;;;;15.90;8.93;;;0.40;99.90;;;;;;4956924;28;20165;-86
2022/03/01 00:36:28;;;;;;;15.47;8.50;;;0.40;99.90;;;;;;4957420;28;20170;-85
2022/03/01 00:38:54;;;;;;;17.17;9.40;;;0.40;99.90;;;;;;4974593;28;20191;-84
2022/03/01 00:41:20;;;;;;;16.33;8.90;;;0.40;99.90;;;;;;4957522;28;20168;-86
2022/03/01 00:43:45;;;;;;;16.67;9.00;;;0.40;99.90;;;;;;4957534;28;20167;-86
2022/03/01 00:46:11;;;;;;;17.43;8.90;;;0.40;99.90;;;;;;4956903;28;20198;-84
2022/03/01 00:48:41;;;;;;;18.43;9.77;;;0.40;99.90;;;;;;4956937;28;20573;-87
2022/03/01 00:51:10;;;;;;;15.67;8.63;;;0.40;99.90;;;;;;4957444;28;20168;-84
2022/03/01 00:53:36;;;;;;;20.37;9.13;;;0.40;99.90;;;;;;4957114;28;20192;-87
2022/03/01 00:56:05;;;;;;;16.93;9.40;;;0.30;99.90;;;;;;4957282;28;20174;-87
2022/03/01 00:58:31;;;;;;;18.07;9.07;;;0.30;99.90;;;;;;4957088;28;20267;-85
2022/03/01 01:00:57;;;;;;;18.10;8.63;;;0.30;99.90;;;;;;4957213;28;20178;-86
2022/03/01 01:03:25;;;;;;;19.00;9.27;;;0.30;99.90;;;;;;4957169;28;20178;-85
2022/03/01 01:05:52;;;;;;;17.00;8.80;;;0.30;99.90;;;;;;4957043;28;20176;-87
2022/03/01 01:08:18;;;;;;;18.07;8.67;;;0.20;99.90;;;;;;4957029;28;20212;-86
2022/03/01 01:10:45;;;;;;;16.10;8.83;;;0.20;99.90;;;;;;4957046;28;20628;-85
2022/03/01 01:13:13;;;;;;;16.90;8.80;;;0.10;99.90;;;;;;4974461;28;20165;-86
2022/03/01 01:15:41;;;;;;;17.63;9.17;;;0.10;99.90;;;;;;4956654;28;20165;-84
2022/03/01 01:18:08;;;;;;;18.83;8.87;;;0.10;99.90;;;;;;4956611;28;20215;-86
2022/03/01 01:20:36;;;;;;;16.03;9.43;;;0.00;99.90;;;;;;4956836;28;20172;-84
2022/03/01 01:23:03;;;;;;;16.83;8.53;;;0.10;99.90;;;;;;4957141;28;20231;-84
2022/03/01 01:25:29;;;;;;;17.83;9.03;;;0.00;99.90;;;;;;4956847;28;20235;-85
2022/03/01 01:27:57;;;;;;;18.90;8.93;;;0.00;99.90;;;;;;4973624;28;20219;-85
2022/03/01 01:30:29;;;;;;;19.07;8.97;;;0.00;99.90;;;;;;4956890;28;20175;-86
2022/03/01 01:32:55;;;;;;;18.50;9.47;;;-0.10;99.90;;;;;;4956502;28;20171;-87
2022/03/01 01:35:23;;;;;;;16.87;8.80;;;-0.10;99.90;;;;;;4956992;28;20206;-84
2022/03/01 01:37:50;;;;;;;14.80;8.73;;;-0.10;99.90;;;;;;4956899;28;20257;-86
2022/03/01 01:40:20;;;;;;;16.30;9.20;;;-0.10;99.90;;;;;;4974139;28;20259;-85
2022/03/01 01:42:46;;;;;;;19.13;9.00;;;-0.10;99.90;;;;;;4974034;28;20167;-86
2022/03/01 01:45:13;;;;;;;16.77;9.20;;;-0.10;99.90;;;;;;4957146;28;20185;-85
2022/03/01 01:47:40;;;;;;;15.57;9.00;;;-0.20;99.90;;;;;;4960047;28;20624;-86
2022/03/01 01:50:08;;;;;;;17.73;9.13;;;-0.20;99.90;;;;;;4959590;28;20178;-86
2022/03/01 01:52:34;;;;;;;17.43;9.53;;;-0.20;99.90;;;;;;4959045;28;20195;-87
2022/03/01 01:55:00;;;;;;;18.10;9.80;;;-0.20;99.90;;;;;;4960099;28;20176;-85
2022/03/01 01:57:27;;;;;;;17.87;9.23;;;-0.30;99.90;;;;;;4959844;28;20231;-86
2022/03/01 01:59:56;;;;;;;14.80;8.40;;;-0.30;99.90;;;;;;4977579;28;20179;-86
2022/03/01 02:02:25;;;;;;;16.03;8.90;;;-0.30;99.90;;;;;;4958971;28;20178;-84
2022/03/01 02:04:50;;;;;;;19.40;9.00;;;-0.30;99.90;;;;;;4977445;28;20169;-85
2022/03/01 02:07:17;;;;;;;14.30;8.87;;;-0.30;99.90;;;;;;4977124;28;20209;-84
2022/03/01 02:09:43;;;;;;;15.20;9.00;;;-0.30;99.90;;;;;;4960061;28;20540;-84
2022/03/01 02:12:09;;;;;;;15.97;8.67;;;-0.30;99.90;;;;;;4960000;28;20171;-86
2022/03/01 02:14:37;;;;;;;17.03;9.00;;;-0.30;99.90;;;;;;4959584;28;20172;-85
2022/03/01 02:17:06;;;;;;;18.43;9.73;;;-0.40;99.90;;;;;;4975758;28;20277;-85
2022/03/01 02:19:33;;;;;;;18.87;9.07;;;-0.40;99.90;;;;;;4960034;28;20202;-84
2022/03/01 02:22:00;;;;;;;18.37;9.50;;;-0.40;99.90;;;;;;4976734;28;20169;-85
2022/03/01 02:24:30;;;;;;;16.87;9.83;;;-0.40;99.90;;;;;;4959759;28;20622;-85
2022/03/01 02:26:57;;;;;;;19.33;9.90;;;-0.40;99.90;;;;;;4959334;28;20285;-84
2022/03/01 02:29:24;;;;;;;18.13;10.17;;;-0.40;99.90;;;;;;4959586;28;20169;-86
2022/03/01 02:31:51;;;;;;;20.70;9.63;;;-0.40;99.90;;;;;;4959613;28;20183;-83
2022/03/01 02:34:18;;;;;;;16.83;9.63;;;-0.50;99.90;;;;;;4959580;28;20683;-84
2022/03/01 02:36:45;;;;;;;15.20;9.37;;;-0.50;99.90;;;;;;4959308;28;20179;-85
2022/03/01 02:39:11;;;;;;;18.63;10.27;;;-0.50;99.90;;;;;;4959267;28;20192;-86
2022/03/01 02:41:43;;;;;;;20.07;9.97;;;-0.50;99.90;;;;;;4959910;28;20171;-85
2022/03/01 02:44:10;;;;;;;16.17;9.13;;;-0.50;99.90;;;;;;4959418;28;20203;-83
2022/03/01 02:46:36;;;;;;;17.87;9.40;;;-0.50;99.90;;;;;;4950105;29;20584;-85
2022/03/01 02:49:04;;;;;;;18.77;10.33;;;-0.60;99.90;;;;;;4940093;29;20199;-86
2022/03/01 02:51:31;;;;;;;19.17;9.47;;;-0.60;99.90;;;;;;4940085;29;20638;-85
2022/03/01 02:53:58;;;;;;;17.30;9.57;;;-0.60;99.90;;;;;;4940107;29;20175;-85
2022/03/01 02:56:24;;;;;;;17.50;10.03;;;-0.60;99.90;;;;;;4956698;28;20161;-88
2022/03/01 02:58:55;;;;;;;16.47;9.80;;;-0.60;99.90;;;;;;4939651;29;20247;-89
2022/03/01 03:01:22;;;;;;;19.10;9.53;;;-0.60;99.90;;;;;;4939674;29;20263;-84
2022/03/01 03:03:49;;;;;;;20.53;9.77;;;-0.70;99.90;;;;;;4956976;29;20199;-84
2022/03/01 03:06:16;;;;;;;17.43;9.90;;;-0.70;99.90;;;;;;4939825;29;20177;-85
2022/03/01 03:08:41;;;;;;;19.73;9.83;;;-0.70;99.90;;;;;;4939570;29;20287;-84
2022/03/01 03:11:07;;;;;;;16.47;9.53;;;-0.70;99.90;;;;;;4939625;29;20173;-85
2022/03/01 03:13:33;;;;;;;17.83;10.00;;;-0.70;99.90;;;;;;4939718;29;20211;-84
2022/03/01 03:15:59;;;;;;;18.93;10.27;;;-0.80;99.90;;;;;;4942899;28;20275;-84
2022/03/01 03:18:25;;;;;;;18.80;10.30;;;-0.70;99.90;;;;;;4958724;28;20345;-83
2022/03/01 03:20:51;;;;;;;18.60;9.33;;;-0.80;99.90;;;;;;4958655;28;20176;-84
2022/03/01 03:23:17;;;;;;;18.47;10.00;;;-0.80;99.90;;;;;;4958706;28;20179;-84
2022/03/01 03:25:43;;;;;;;17.67;9.53;;;-0.70;99.90;;;;;;4958619;28;20187;-84
2022/03/01 03:28:09;;;;;;;19.13;10.57;;;-0.80;99.90;;;;;;4958350;28;20220;-84
2022/03/01 03:30:35;;;;;;;17.63;9.37;;;-0.80;99.90;;;;;;4958432;28;20262;-83
2022/03/01 03:33:01;;;;;;;21.50;10.80;;;-0.80;99.90;;;;;;4958063;28;20170;-84
2022/03/01 03:35:28;;;;;;;17.83;10.30;;;-0.90;99.90;;;;;;4958379;28;20168;-85
2022/03/01 03:37:55;;;;;;;18.30;10.40;;;-0.80;99.90;;;;;;4958230;28;20197;-86
2022/03/01 03:40:21;;;;;;;19.47;9.97;;;-0.90;99.90;;;;;;4958271;28;20173;-84
2022/03/01 03:42:48;;;;;;;18.93;10.10;;;-0.90;99.90;;;;;;4958092;28;20653;-84
2022/03/01 03:45:14;;;;;;;20.30;10.63;;;-0.90;99.90;;;;;;4975601;28;20168;-85
2022/03/01 03:47:42;;;;;;;17.27;9.80;;;-0.90;99.90;;;;;;4957972;28;20220;-84
2022/03/01 03:50:12;;;;;;;19.10;9.90;;;-0.90;99.90;;;;;;4958206;28;20246;-85
2022/03/01 03:52:39;;;;;;;17.23;9.20;;;-0.90;99.90;;;;;;4957896;28;20184;-84
2022/03/01 03:55:06;;;;;;;21.90;10.27;;;-1.00;99.90;;;;;;4975359;28;20248;-83
2022/03/01 03:57:33;;;;;;;17.30;10.23;;;-1.00;99.90;;;;;;4957026;28;20259;-84
2022/03/01 04:00:00;;;;;;;17.30;9.63;;;-1.00;99.90;;;;;;4957207;28;20173;-84
2022/03/01 04:02:26;;;;;;;21.10;10.07;;;-1.00;99.90;;;;;;4956130;28;20190;-84
2022/03/01 04:04:52;;;;;;;22.53;10.67;;;-1.00;99.90;;;;;;4957776;28;20533;-84
2022/03/01 04:07:18;;;;;;;18.67;9.73;;;-1.00;99.90;;;;;;4957070;28;20223;-84
2022/03/01 04:09:45;;;;;;;17.37;10.10;;;-1.00;99.90;;;;;;4957544;28;20628;-87
2022/03/01 04:12:11;;;;;;;20.73;10.60;;;-1.00;99.90;;;;;;4974883;28;20175;-86
2022/03/01 04:14:43;;;;;;;17.50;10.07;;;-1.10;99.90;;;;;;4957510;28;20172;-84
2022/03/01 04:17:10;;;;;;;18.93;9.97;;;-1.20;99.90;;;;;;4942777;28;20238;-85
2022/03/01 04:19:38;;;;;;;23.70;10.07;;;-1.20;99.90;;;;;;4955691;29;20191;-84
2022/03/01 04:22:06;;;;;;;20.93;10.50;;;-1.30;99.90;;;;;;4955579;29;20672;-84
2022/03/01 04:24:32;;;;;;;15.77;9.43;;;-1.30;99.90;;;;;;4938172;29;20274;-85
2022/03/01 04:26:58;;;;;;;19.27;9.70;;;-1.30;99.90;;;;;;4938212;29;20302;-86
2022/03/01 04:29:24;;;;;;;16.83;9.97;;;-1.30;99.90;;;;;;4938468;29;20176;-84
2022/03/01 04:31:51;;;;;;;17.20;10.17;;;-1.40;99.90;;;;;;4938151;29;20222;-84
2022/03/01 04:34:17;;;;;;;19.33;10.17;;;-1.30;99.90;;;;;;4938350;29;20586;-84
2022/03/01 04:36:43;;;;;;;19.33;9.80;;;-1.30;99.90;;;;;;4938124;29;20175;-84
2022/03/01 04:39:09;;;;;;;17.77;9.57;;;-1.30;99.90;;;;;;4955403;29;20574;-85
2022/03/01 04:41:36;;;;;;;21.47;9.80;;;-1.30;99.90;;;;;;4955324;29;20669;-84
2022/03/01 04:44:01;;;;;;;20.67;10.73;;;-1.30;99.90;;;;;;4938102;29;20203;-83
2022/03/01 04:46:28;;;;;;;18.57;9.27;;;-1.30;99.90;;;;;;4945982;28;20583;-85
2022/03/01 04:48:54;;;;;;;18.80;10.70;;;-1.30;99.90;;;;;;4957401;28;20253;-84
2022/03/01 04:51:21;;;;;;;19.33;10.47;;;-1.30;99.90;;;;;;4957158;28;20212;-84
2022/03/01 04:53:48;;;;;;;16.60;10.30;;;-1.30;99.90;;;;;;4957176;28;20170;-84
2022/03/01 04:56:14;;;;;;;18.00;9.80;;;-1.40;99.90;;;;;;4957372;28;20183;-83
2022/03/01 04:58:40;;;;;;;21.97;10.43;;;-1.40;99.90;;;;;;4974137;28;20196;-83
2022/03/01 05:01:05;;;;;;;19.07;10.20;;;-1.40;99.90;;;;;;4956964;28;20190;-84
2022/03/01 05:03:31;;;;;;;20.83;9.80;;;-1.40;99.90;;;;;;4974262;28;20197;-84
2022/03/01 05:05:57;;;;;;;21.53;10.10;;;-1.40;99.90;;;;;;4956969;28;20205;-84
2022/03/01 05:08:23;;;;;;;17.23;9.67;;;-1.40;99.90;;;;;;4956778;28;20268;-84
2022/03/01 05:10:49;;;;;;;18.87;10.17;;;-1.40;99.90;;;;;;4956948;28;20277;-84
2022/03/01 05:13:14;;;;;;;19.53;10.70;;;-1.40;99.90;;;;;;4956825;28;20171;-84
2022/03/01 05:15:40;;;;;;;19.37;11.03;;;-1.40;99.90;;;;;;4974178;28;20505;-83
2022/03/01 05:18:08;;;;;;;20.33;10.33;;;-1.40;99.90;;;;;;4956496;28;20237;-84
2022/03/01 05:20:40;;;;;;;18.83;10.00;;;-1.40;99.90;;;;;;4960245;28;20267;-84
2022/03/01 05:23:08;;;;;;;18.77;10.27;;;-1.40;99.90;;;;;;4960570;28;20175;-85
2022/03/01 05:25:35;;;;;;;19.20;9.80;;;-1.40;99.90;;;;;;4960608;28;20206;-83
2022/03/01 05:28:01;;;;;;;20.10;10.40;;;-1.40;99.90;;;;;;4960582;28;20222;-83
2022/03/01 05:30:27;;;;;;;18.60;10.30;;;-1.40;99.90;;;;;;4960757;28;20191;-83
2022/03/01 05:32:56;;;;;;;15.93;9.27;;;-1.40;99.90;;;;;;4960328;28;20193;-84
2022/03/01 05:35:28;;;;;;;18.00;10.43;;;-1.40;99.90;;;;;;4960457;28;20170;-83
2022/03/01 05:37:55;;;;;;;17.70;10.27;;;-1.50;99.90;;;;;;4960141;28;20988;-83
2022/03/01 05:40:27;;;;;;;19.63;9.37;;;-1.50;99.90;;;;;;4960317;28;20515;-83
2022/03/01 05:42:54;;;;;;;17.33;9.50;;;-1.50;99.90;;;;;;4977753;28;20165;-83
2022/03/01 05:45:20;;;;;;;20.80;10.27;;;-1.50;99.90;;;;;;4960468;28;20233;-83
2022/03/01 05:47:47;;;;;;;18.20;9.70;;;-1.50;99.90;;;;;;4941425;29;20218;-84
2022/03/01 05:50:14;;;;;;;15.30;9.57;;;-1.50;99.90;;;;;;4941064;29;20174;-83
2022/03/01 05:52:41;;;;;;;17.90;10.37;;;-1.60;99.90;;;;;;4940429;29;20181;-83
2022/03/01 05:55:09;;;;;;;15.43;8.90;;;-1.60;99.90;;;;;;4940471;29;20209;-83
2022/03/01 05:57:37;;;;;;;21.00;10.17;;;-1.60;99.90;;;;;;4940943;29;20693;-84
2022/03/01 06:00:09;;;;;;;20.03;10.13;;;-1.60;99.90;;;;;;4958354;29;20171;-83
2022/03/01 06:02:35;;;;;;;21.70;10.17;;;-1.60;99.90;;;;;;4940697;29;20183;-83
2022/03/01 06:05:01;;;;;;;22.50;10.70;;;-1.60;99.90;;;;;;4940724;29;20189;-83
2022/03/01 06:07:28;;;;;;;18.50;9.93;;;-1.60;99.90;;;;;;4940452;29;20297;-85
2022/03/01 06:09:54;;;;;;;18.23;9.83;;;-1.60;99.90;;;;;;4958036;29;20163;-85
2022/03/01 06:12:21;;;;;;;18.43;9.70;;;-1.60;99.90;;;;;;4939775;29;20186;-84
2022/03/01 06:14:46;;;;;;;18.80;10.13;;;-1.60;99.90;;;;;;4957804;29;20186;-85
2022/03/01 06:17:15;;;;;;;17.40;9.90;;;-1.60;99.90;;;;;;4953722;28;20727;-85
2022/03/01 06:19:41;;;;;;;17.97;9.73;;;-1.60;99.90;;;;;;4959785;28;20257;-85
2022/03/01 06:22:07;;;;;;;18.47;10.13;;;-1.60;99.90;;;;;;4959822;28;20242;-84
2022/03/01 06:24:34;;;;;;;19.00;10.20;;;-1.50;99.90;;;;;;4959204;28;20183;-85
2022/03/01 06:27:00;;;;;;;19.00;9.90;;;-1.60;99.90;;;;;;4959478;28;20213;-82
2022/03/01 06:29:26;;;;;;;22.57;10.30;;;-1.60;99.90;;;;;;4959549;28;20176;-83
2022/03/01 06:31:52;;;;;;;18.93;9.57;;;-1.60;99.90;;;;;;4958663;28;20179;-85
2022/03/01 06:34:18;;;;;;;27.27;10.37;;;-1.60;99.90;;;;;;4959606;28;20636;-83
2022/03/01 06:36:44;;;;;;;21.90;10.27;;;-1.50;99.90;;;;;;4976517;28;20220;-85
2022/03/01 06:39:11;;;;;;;17.07;9.83;;;-1.50;99.90;;;;;;4976740;28;20627;-83
2022/03/01 06:41:37;;;;;;;17.50;9.83;;;-1.40;99.90;;;;;;4976717;28;20183;-83
2022/03/01 06:44:03;;;;;;;21.50;10.03;;;-1.40;99.90;;;;;;4959306;28;20632;-83
2022/03/01 06:46:29;;;;;;;22.27;10.37;;;-1.40;99.90;;;;;;4959376;28;20199;-84
2022/03/01 06:48:54;;;;;;;17.57;10.00;;;-1.30;99.90;;;;;;4958840;28;20274;-83
2022/03/01 06:51:21;;;;;;;18.17;10.30;;;-1.20;99.90;;;;;;4976599;28;20164;-83
2022/03/01 06:53:47;;;;;;;17.77;9.43;;;-1.20;99.90;;;;;;4959159;28;20183;-84
2022/03/01 06:56:13;;;;;;;17.13;9.80;;;-1.20;99.90;;;;;;4958622;28;20652;-85
2022/03/01 06:58:39;;;;;;;18.97;10.20;;;-1.10;99.90;;;;;;4958946;28;20229;-83
2022/03/01 07:01:04;;;;;;;16.23;9.43;;;-1.00;99.90;;;;;;4958801;28;20175;-83
2022/03/01 07:03:31;;;;;;;18.93;9.60;;;-1.00;99.90;;;;;;4976146;28;20159;-83
2022/03/01 07:05:59;;;;;;;18.17;10.20;;;-1.00;99.90;;;;;;4958988;28;20171;-83
2022/03/01 07:08:27;;;;;;;16.30;9.57;;;-0.90;99.90;;;;;;4958918;28;20310;-83
2022/03/01 07:10:53;;;;;;;17.30;9.90;;;-0.80;99.90;;;;;;4958899;28;20200;-84
2022/03/01 07:13:20;;;;;;;19.23;9.63;;;-0.70;99.90;;;;;;4958758;28;20171;-84
2022/03/01 07:15:46;;;;;;;18.93;9.53;;;-0.70;99.90;;;;;;4958198;28;20636;-85
2022/03/01 07:18:12;;;;;;;18.50;9.33;;;-0.60;99.90;;;;;;4975405;28;20237;-82
2022/03/01 07:20:38;;;;;;;17.33;9.67;;;-0.50;99.90;;;;;;4958350;28;20176;-83
2022/03/01 07:23:05;;;;;;;20.03;10.40;;;-0.50;99.90;;;;;;4958195;28;20216;-82
2022/03/01 07:25:32;;;;;;;19.57;10.03;;;-0.40;99.90;;;;;;4958010;28;20187;-85
2022/03/01 07:27:58;;;;;;;20.87;10.07;;;-0.40;99.90;;;;;;4958840;28;20216;-83
2022/03/01 07:30:26;;;;;;;13.70;8.40;;;-0.30;99.90;;;;;;4975898;28;20245;-83
2022/03/01 07:32:53;;;;;;;15.00;8.47;;;-0.20;99.90;;;;;;4975891;28;20175;-83
2022/03/01 07:35:20;;;;;;;16.83;10.03;;;-0.10;99.90;;;;;;4958353;28;20554;-83
2022/03/01 07:37:46;;;;;;;20.63;9.10;;;-0.10;99.90;;;;;;4958388;28;20266;-83
2022/03/01 07:40:14;;;;;;;17.13;9.70;;;0.00;99.90;;;;;;4958398;28;20184;-84
2022/03/01 07:42:41;;;;;;;18.53;10.10;;;0.10;99.90;;;;;;4975502;28;20163;-85
2022/03/01 07:45:08;;;;;;;16.07;8.63;;;0.10;99.90;;;;;;4975554;28;20300;-85
2022/03/01 07:47:34;;;;;;;19.53;9.23;;;0.20;99.90;;;;;;4957724;28;20226;-84
2022/03/01 07:50:02;;;;;;;14.57;8.40;;;0.30;99.90;;;;;;4956695;28;20194;-86
2022/03/01 07:52:27;;;;;;;18.03;9.53;;;0.30;99.90;;;;;;4957929;28;20190;-85
2022/03/01 07:54:53;;;;;;;18.20;9.67;;;0.30;99.90;;;;;;4958073;28;20173;-84
2022/03/01 07:57:20;;;;;;;15.97;9.07;;;0.40;99.90;;;;;;4957842;28;20207;-84
2022/03/01 07:59:46;;;;;;;15.53;8.47;;;0.50;99.90;;;;;;4957726;28;20212;-83
2022/03/01 08:02:12;;;;;;;16.67;9.50;;;0.60;99.90;;;;;;4957859;28;20204;-84
2022/03/01 08:04:41;;;;;;;16.27;9.83;;;0.60;99.90;;;;;;4958057;28;20956;-84
2022/03/01 08:07:09;;;;;;;16.27;8.27;;;0.70;99.90;;;;;;4957619;28;20676;-84
2022/03/01 08:09:36;;;;;;;16.23;8.93;;;0.80;99.90;;;;;;4957924;28;20177;-85
2022/03/01 08:12:05;;;;;;;14.37;8.60;;;0.80;99.90;;;;;;4957741;28;20632;-85
2022/03/01 08:14:32;;;;;;;15.07;9.30;;;0.80;99.90;;;;;;4957749;28;20642;-86
2022/03/01 08:16:59;;;;;;;17.83;9.07;;;0.90;99.90;;;;;;4957037;28;20236;-89
2022/03/01 08:19:26;;;;;;;20.20;8.97;;;0.90;99.90;;;;;;4957814;28;20183;-84
2022/03/01 08:21:55;;;;;;;16.53;8.83;;;1.00;99.90;;;;;;4963817;28;20201;-87
2022/03/01 08:24:20;;;;;;;18.23;9.03;;;1.10;99.90;;;;;;4938253;29;20594;-85
2022/03/01 08:26:48;;;;;;;18.93;8.57;;;1.10;99.90;;;;;;4937060;29;20235;-86
2022/03/01 08:29:18;;;;;;;15.83;9.10;;;1.20;99.90;;;;;;4955606;29;20204;-87
2022/03/01 08:31:44;;;;;;;15.53;9.20;;;1.30;99.90;;;;;;4938577;29;20181;-88
2022/03/01 08:34:10;;;;;;;16.80;9.73;;;1.40;99.90;;;;;;4938476;29;20245;-84
2022/03/01 08:36:39;;;;;;;18.90;8.90;;;1.50;99.90;;;;;;4938433;29;20187;-85
2022/03/01 08:39:12;;;;;;;15.50;8.97;;;1.50;99.90;;;;;;4938257;29;20209;-88
2022/03/01 08:41:38;;;;;;;14.53;8.47;;;1.60;99.90;;;;;;4938566;29;20189;-86
2022/03/01 08:44:05;;;;;;;14.77;8.47;;;1.60;99.90;;;;;;4938304;29;20657;-85
2022/03/01 08:46:31;;;;;;;13.33;8.63;;;1.70;99.90;;;;;;4946870;28;20192;-88
2022/03/01 08:48:58;;;;;;;15.10;8.70;;;1.70;99.90;;;;;;4957197;28;20684;-86
2022/03/01 08:51:25;;;;;;;19.57;9.73;;;1.80;99.90;;;;;;4957572;28;20172;-86
2022/03/01 08:53:54;;;;;;;17.40;9.27;;;1.80;99.90;;;;;;4959348;28;20180;-86
2022/03/01 08:56:20;;;;;;;16.23;9.33;;;1.80;99.90;;;;;;4963692;28;20656;-85
2022/03/01 08:58:48;;;;;;;16.93;9.67;;;1.80;99.90;;;;;;4963587;28;20208;-86
2022/03/01 09:01:14;;;;;;;13.70;8.37;;;1.80;99.90;;;;;;4963845;28;20189;-86
2022/03/01 09:03:40;;;;;;;15.63;8.90;;;2.00;99.90;;;;;;4963476;28;20284;-89
2022/03/01 09:06:07;;;;;;;14.67;9.03;;;2.00;99.90;;;;;;4963844;28;20172;-84
2022/03/01 09:08:34;;;;;;;18.50;9.60;;;2.10;99.90;;;;;;4963425;28;20605;-85
2022/03/01 09:11:03;;;;;;;18.17;8.70;;;2.20;99.90;;;;;;4963523;28;20171;-87
2022/03/01 09:13:30;;;;;;;19.93;9.17;;;2.30;99.90;;;;;;4963721;28;20192;-88
2022/03/01 09:15:56;;;;;;;15.63;9.00;;;2.30;99.90;;;;;;4980568;28;20188;-86
2022/03/01 09:18:22;;;;;;;15.27;8.57;;;2.40;99.90;;;;;;4963857;28;20362;-87
2022/03/01 09:20:49;;;;;;;20.53;9.50;;;2.50;99.90;;;;;;4981068;28;20660;-91
2022/03/01 09:23:16;;;;;;;15.57;8.20;;;2.60;99.90;;;;;;4963948;28;20223;-87
2022/03/01 09:25:43;;;;;;;15.67;7.93;;;2.60;99.90;;;;;;4963743;28;20187;-87
2022/03/01 09:28:17;;;;;;;17.37;9.80;;;2.80;99.90;;;;;;4963388;28;20274;-88
2022/03/01 09:30:44;;;;;;;15.67;8.93;;;2.80;99.90;;;;;;4963751;28;20184;-85
2022/03/01 09:33:13;;;;;;;14.80;8.67;;;2.90;99.90;;;;;;4963539;28;20271;-87
2022/03/01 09:35:39;;;;;;;17.23;8.40;;;3.00;99.90;;;;;;4963933;28;20180;-89
2022/03/01 09:38:04;;;;;;;16.03;9.03;;;3.00;99.90;;;;;;4963572;28;20208;-89
2022/03/01 09:40:30;;;;;;;17.37;9.73;;;3.10;99.90;;;;;;4963729;28;20184;-88
2022/03/01 09:43:04;;;;;;;15.47;8.93;;;3.10;99.90;;;;;;4963604;28;20274;-88
2022/03/01 09:45:32;;;;;;;14.10;8.80;;;3.10;99.90;;;;;;4963446;28;20575;-87
2022/03/01 09:47:58;;;;;;;16.23;9.17;;;3.20;99.90;;;;;;4963296;28;20231;-87
2022/03/01 09:50:27;;;;;;;13.50;8.67;;;3.20;99.90;;;;;;4962651;28;20211;-87
2022/03/01 09:52:56;;;;;;;15.27;9.10;;;3.30;99.90;;;;;;4963402;28;20191;-87
2022/03/01 09:55:22;;;;;;;18.17;8.93;;;3.40;99.90;;;;;;4963455;28;20177;-88
2022/03/01 09:57:48;;;;;;;14.10;8.73;;;3.40;99.90;;;;;;4963394;28;20208;-88
2022/03/01 10:00:14;;;;;;;15.07;8.50;;;3.40;99.90;;;;;;4963659;28;20834;-88
2022/03/01 10:02:43;;;;;;;19.13;8.37;;;3.40;99.90;;;;;;4963102;28;20177;-89
2022/03/01 10:05:11;;;;;;;14.47;8.27;;;3.50;99.90;;;;;;4979281;28;20255;-88
2022/03/01 10:07:42;;;;;;;15.47;8.03;;;3.60;99.90;;;;;;4959978;28;20254;-90
2022/03/01 10:10:19;;;;;;;16.73;8.77;;;3.60;99.90;;;;;;4960740;28;20192;-88
2022/03/01 10:12:58;;;;;;;13.27;8.10;;;3.70;99.90;;;;;;4961019;28;20173;-88
2022/03/01 10:15:33;;;;;;;14.33;9.10;;;3.80;99.90;;;;;;4960350;28;20200;-89
2022/03/01 10:18:12;;;;;;;14.07;8.57;;;3.90;99.90;;;;;;4959726;28;20323;-89
2022/03/01 10:20:40;;;;;;;15.40;8.57;;;4.00;99.90;;;;;;4960419;28;20180;-87
2022/03/01 10:23:06;;;;;;;12.70;8.10;;;4.10;99.90;;;;;;4960607;28;20172;-92
2022/03/01 10:25:43;;;;;;;17.63;8.37;;;4.20;99.90;;;;;;4960519;28;20183;-89
2022/03/01 10:28:16;;;;;;;16.40;8.60;;;4.30;99.90;;;;;;4977520;28;20214;-89
2022/03/01 10:30:44;;;;;;;13.83;8.03;;;4.40;99.90;;;;;;4960416;28;20579;-88
2022/03/01 10:33:13;;;;;;;14.67;8.63;;;4.50;99.90;;;;;;4960147;28;20196;-90
2022/03/01 10:35:58;;;;;;;13.63;7.83;;;4.60;99.90;;;;;;4960452;28;20625;-88
2022/03/01 10:38:26;;;;;;;12.43;7.87;;;4.80;99.90;;;;;;4960277;28;20232;-89
2022/03/01 10:40:58;;;;;;;13.33;8.23;;;4.90;99.90;;;;;;4959987;28;20580;-88
2022/03/01 10:43:28;;;;;;;18.67;9.10;;;5.10;99.90;;;;;;4960467;28;20208;-88
2022/03/01 10:45:57;;;;;;;16.57;8.47;;;5.10;99.90;;;;;;4960113;28;20185;-89
2022/03/01 10:48:29;;;;;;;14.13;8.13;;;5.20;99.90;;;;;;4959802;28;20743;-87
2022/03/01 10:51:19;;;;;;;13.13;8.33;;;5.40;99.90;;;;;;4977163;28;20191;-90
2022/03/01 10:53:54;;;;;;;13.27;8.00;;;5.50;99.90;;;;;;4960203;28;20181;-88
2022/03/01 10:56:32;;;;;;;13.03;7.93;;;5.40;99.90;;;;;;4977035;28;20251;-90
2022/03/01 10:58:58;;;;;;;12.57;7.97;;;5.40;99.90;;;;;;4960044;28;20212;-90
2022/03/01 11:01:27;;;;;;;14.07;7.50;;;5.50;99.90;;;;;;4960326;28;20187;-92
2022/03/01 11:04:07;;;;;;;12.30;7.63;;;5.60;99.80;;;;;;4960656;28;20267;-90
2022/03/01 11:06:34;;;;;;;12.80;7.20;;;5.60;99.90;;;;;;4960929;28;20204;-90
2022/03/01 11:09:05;;;;;;;13.53;7.63;;;5.70;99.90;;;;;;4961488;28;20212;-89
2022/03/01 11:11:32;;;;;;;13.10;7.10;;;5.80;99.90;;;;;;4962207;28;20215;-90
2022/03/01 11:14:05;;;;;;;11.70;7.17;;;6.00;98.80;;;;;;4961273;28;20176;-89
2022/03/01 11:17:07;;;;;;;13.43;7.10;;;5.90;99.40;;;;;;4960093;28;20224;-93
2022/03/01 11:19:54;;;;;;;12.23;7.20;;;5.90;98.40;;;;;;4960131;28;20188;-92
2022/03/01 11:22:42;;;;;;;11.97;7.17;;;6.00;99.20;;;;;;4959640;28;20184;-89
2022/03/01 11:25:19;;;;;;;11.60;6.53;;;6.20;98.60;;;;;;4959482;28;20184;-90
2022/03/01 11:28:05;;;;;;;13.17;7.27;;;6.30;99.40;;;;;;4959222;28;20208;-89
2022/03/01 11:30:51;;;;;;;14.53;7.57;;;6.40;97.40;;;;;;4959401;28;20180;-93
2022/03/01 11:36:31;;;;;;;11.43;6.90;;;6.30;97.70;;;;;;4976377;28;20173;-92
2022/03/01 11:39:16;;;;;;;16.63;7.70;;;6.40;97.70;;;;;;4959222;28;20227;-93
2022/03/01 11:41:51;;;;;;;13.10;7.23;;;6.30;97.90;;;;;;4959011;28;20168;-89
2022/03/01 11:44:25;;;;;;;11.17;6.53;;;6.30;97.30;;;;;;4959038;28;20168;-91
2022/03/01 11:46:57;;;;;;;10.77;6.90;;;6.30;97.60;;;;;;4958787;28;20265;-90
2022/03/01 11:49:42;;;;;;;12.43;6.93;;;6.30;96.70;;;;;;4959037;28;20176;-91
2022/03/01 11:53:01;;;;;;;11.70;6.83;;;6.20;96.60;;;;;;4958754;28;20203;-90
2022/03/01 11:55:52;;;;;;;13.40;7.47;;;6.30;97.30;;;;;;4959038;28;20176;-92
2022/03/01 11:58:20;;;;;;;12.30;7.53;;;6.40;98.50;;;;;;4958190;28;20343;-88
2022/03/01 12:00:47;;;;;;;11.83;7.03;;;6.30;98.80;;;;;;4958786;28;20176;-90
2022/03/01 12:03:24;;;;;;;12.47;7.73;;;6.50;96.00;;;;;;4958218;28;20203;-91
2022/03/01 12:06:04;;;;;;;11.07;7.07;;;6.50;97.40;;;;;;4958477;28;20259;-93
2022/03/01 12:08:39;;;;;;;11.13;6.63;;;6.80;96.40;;;;;;4958348;28;20204;-91
2022/03/01 12:11:14;;;;;;;12.50;7.23;;;6.90;96.50;;;;;;4958738;28;20191;-89
2022/03/01 12:13:50;;;;;;;13.40;7.33;;;6.90;94.90;;;;;;4958563;28;20640;-91
2022/03/01 12:16:29;;;;;;;11.97;6.90;;;7.00;96.30;;;;;;4958231;28;20243;-91
2022/03/01 12:19:22;;;;;;;12.67;7.50;;;7.20;94.70;;;;;;4958698;28;20250;-92
2022/03/01 12:22:02;;;;;;;12.27;7.07;;;7.20;94.90;;;;;;4958561;28;20187;-92
2022/03/01 12:24:32;;;;;;;11.77;7.60;;;7.20;96.40;;;;;;4958334;28;20176;-92
2022/03/01 12:27:04;;;;;;;13.13;7.60;;;7.40;95.30;;;;;;4958356;28;20184;-90
2022/03/01 12:29:46;;;;;;;12.43;7.13;;;7.40;94.70;;;;;;4957763;28;20183;-92
2022/03/01 12:32:18;;;;;;;13.07;7.50;;;7.40;96.40;;;;;;4958245;28;20228;-92
2022/03/01 12:34:51;;;;;;;12.70;7.23;;;7.40;96.30;;;;;;4958360;28;20202;-90
2022/03/01 12:37:29;;;;;;;12.50;7.13;;;7.50;94.70;;;;;;4958298;28;20208;-92
2022/03/01 12:40:03;;;;;;;13.57;7.83;;;7.70;96.10;;;;;;4958310;28;20603;-91
2022/03/01 12:42:35;;;;;;;12.40;7.77;;;7.80;93.50;;;;;;4958170;28;20238;-90
2022/03/01 12:45:02;;;;;;;12.60;7.60;;;7.80;93.30;;;;;;4958171;28;20231;-93
2022/03/01 12:47:29;;;;;;;11.67;7.60;;;7.90;95.30;;;;;;4958115;28;20254;-91
2022/03/01 12:49:58;;;;;;;13.17;7.63;;;7.90;95.60;;;;;;4958274;28;20168;-92
2022/03/01 12:52:29;;;;;;;11.40;7.20;;;7.90;93.80;;;;;;4958185;28;20172;-91